Time;durP1;ratioP1;P1;durP2;ratioP2;P2;SDS_P1;SDS_P2;PMS_P1;PMS_P2;Temp;Humidity;BMP_temperature;BMP_pressure;BME280_temperature;BME280_humidity;BME280_pressure;Samples;Min_cycle;Max_cycle;Signal;HPM_P1;HPM_P2
2022/08/24 05:01:36;;;;;;;7.05;4.47;;;17.00;99.90;;;;;;5913276;23;20023;31
2022/08/24 05:04:05;;;;;;;6.53;4.55;;;17.20;99.90;;;;;;4900482;29;20052;-73
2022/08/24 05:06:32;;;;;;;6.20;4.13;;;17.20;99.90;;;;;;4887523;29;20071;-73
2022/08/24 05:08:59;;;;;;;6.18;4.07;;;17.30;99.90;;;;;;4886593;29;20033;-72
2022/08/24 05:11:26;;;;;;;10.18;4.95;;;17.40;99.90;;;;;;4886180;29;20041;-72
2022/08/24 05:13:53;;;;;;;6.03;4.65;;;17.40;99.90;;;;;;4887126;29;20021;-72
2022/08/24 05:16:19;;;;;;;6.75;4.80;;;17.50;99.90;;;;;;4901996;29;20029;-71
2022/08/24 05:18:46;;;;;;;8.98;4.97;;;17.50;99.90;;;;;;4886948;29;20029;-71
2022/08/24 05:21:15;;;;;;;9.23;4.50;;;17.50;99.90;;;;;;4902726;29;20032;-72
2022/08/24 05:23:43;;;;;;;5.70;4.07;;;17.60;99.90;;;;;;4902610;29;20214;-72
2022/08/24 05:26:10;;;;;;;6.90;4.53;;;17.70;99.90;;;;;;4886889;29;20029;-73
2022/08/24 05:28:42;;;;;;;5.43;4.13;;;17.80;99.70;;;;;;4901802;29;20044;-72
2022/08/24 05:31:27;;;;;;;6.93;4.13;;;17.90;99.10;;;;;;4902610;29;20325;-72
2022/08/24 05:33:55;;;;;;;7.20;4.40;;;18.10;98.60;;;;;;4902195;29;20037;-71
2022/08/24 05:36:30;;;;;;;7.85;4.22;;;18.20;98.00;;;;;;4901340;29;20085;-72
2022/08/24 05:38:59;;;;;;;6.78;4.10;;;18.30;97.60;;;;;;4901448;29;20032;-73
2022/08/24 05:41:28;;;;;;;6.70;4.47;;;18.40;97.10;;;;;;4901721;29;20088;-72
2022/08/24 05:44:00;;;;;;;7.03;4.57;;;18.50;96.60;;;;;;4902029;29;20028;-73
2022/08/24 05:46:30;;;;;;;9.68;5.18;;;18.50;96.30;;;;;;4901849;29;20029;-72
2022/08/24 05:48:58;;;;;;;5.20;4.00;;;18.60;96.20;;;;;;4902420;29;20101;-72
2022/08/24 05:51:32;;;;;;;7.70;4.10;;;18.80;95.70;;;;;;4901816;29;20036;-73
2022/08/24 05:54:07;;;;;;;6.47;4.38;;;18.80;95.20;;;;;;4902281;29;20211;-72
2022/08/24 05:56:50;;;;;;;10.93;4.63;;;18.90;94.90;;;;;;4902287;29;20105;-73
2022/08/24 05:59:21;;;;;;;6.30;4.07;;;18.90;94.50;;;;;;4886413;29;20025;-73
2022/08/24 06:01:53;;;;;;;7.53;4.47;;;18.90;94.60;;;;;;4886174;29;20068;-73
2022/08/24 06:04:22;;;;;;;7.68;4.72;;;18.90;94.50;;;;;;4886042;29;20151;-73
2022/08/24 06:06:51;;;;;;;6.97;4.20;;;19.10;94.40;;;;;;4902147;29;20037;-73
2022/08/24 06:09:17;;;;;;;10.02;4.25;;;19.10;94.30;;;;;;4901792;29;20264;-73
2022/08/24 06:11:45;;;;;;;7.10;4.47;;;19.20;93.90;;;;;;4902023;29;20036;-73
2022/08/24 06:14:14;;;;;;;8.65;4.78;;;19.30;93.80;;;;;;4904621;29;20024;-72
2022/08/24 06:16:58;;;;;;;10.10;4.97;;;19.40;93.70;;;;;;4905582;29;20032;-73
2022/08/24 06:19:25;;;;;;;9.45;5.10;;;19.50;93.40;;;;;;4904959;29;20049;-73
2022/08/24 06:21:53;;;;;;;7.53;5.00;;;19.30;93.60;;;;;;4905192;29;20223;-73
2022/08/24 06:27:20;;;;;;;8.25;5.35;;;19.40;93.60;;;;;;4904886;29;20032;-73
2022/08/24 06:27:21;;;;;;;14.23;5.55;;;19.50;93.40;;;;;;4889299;29;20041;-74
2022/08/24 06:30:00;;;;;;;8.90;5.20;;;19.50;93.30;;;;;;4895209;29;20085;-74
2022/08/24 06:32:44;;;;;;;10.25;5.57;;;19.60;93.20;;;;;;4871747;29;20138;-74
2022/08/24 06:35:24;;;;;;;13.85;6.07;;;19.70;92.90;;;;;;4870421;29;20093;-73
2022/08/24 06:37:50;;;;;;;8.88;5.15;;;19.80;92.50;;;;;;4870501;29;20030;-73
2022/08/24 06:40:19;;;;;;;10.45;5.88;;;19.80;92.20;;;;;;4886391;29;20025;-73
2022/08/24 06:42:47;;;;;;;11.52;5.55;;;20.00;91.90;;;;;;4886373;29;20108;-73
2022/08/24 06:45:22;;;;;;;9.90;5.82;;;20.10;91.60;;;;;;4870270;29;20345;-73
2022/08/24 06:47:53;;;;;;;11.88;5.10;;;20.20;91.30;;;;;;4886347;29;20037;-74
2022/08/24 06:50:19;;;;;;;9.43;4.57;;;20.40;90.80;;;;;;4888190;29;20285;-73
2022/08/24 06:52:45;;;;;;;10.30;5.10;;;20.50;90.50;;;;;;4892823;29;20056;-78
2022/08/24 06:55:11;;;;;;;9.88;4.88;;;20.60;90.20;;;;;;4901704;29;20210;-74
2022/08/24 06:57:40;;;;;;;11.65;5.00;;;20.60;90.20;;;;;;4881462;29;20346;-74
2022/08/24 07:00:13;;;;;;;12.27;5.20;;;20.70;90.30;;;;;;4890277;29;20092;-74
2022/08/24 07:02:40;;;;;;;7.35;4.85;;;20.80;90.20;;;;;;4888407;29;20241;-74
2022/08/24 07:05:09;;;;;;;10.05;5.18;;;20.70;90.00;;;;;;4888987;29;20025;-74
2022/08/24 07:07:44;;;;;;;7.70;5.07;;;20.80;90.10;;;;;;4890322;29;20318;-74
2022/08/24 07:10:10;;;;;;;9.98;5.40;;;20.90;89.20;;;;;;4889031;29;20081;-73
2022/08/24 07:12:36;;;;;;;6.95;4.53;;;21.10;88.80;;;;;;4888555;29;20076;-73
2022/08/24 07:15:06;;;;;;;8.70;4.75;;;21.40;87.10;;;;;;4885482;29;20104;-74
2022/08/24 07:17:32;;;;;;;13.68;5.15;;;21.70;86.50;;;;;;4902685;29;20148;-73
2022/08/24 07:19:58;;;;;;;9.85;5.70;;;21.90;85.50;;;;;;4890426;29;20025;-73
2022/08/24 07:22:44;;;;;;;10.68;5.00;;;22.00;84.50;;;;;;4889518;29;20044;-73
2022/08/24 07:25:11;;;;;;;9.95;4.90;;;22.20;83.90;;;;;;4887896;29;20037;-73
2022/08/24 07:27:40;;;;;;;10.65;5.38;;;22.30;83.20;;;;;;4903991;29;20048;-74
2022/08/24 07:30:07;;;;;;;9.18;4.88;;;22.30;83.10;;;;;;4904209;29;20048;-73
2022/08/24 07:32:34;;;;;;;9.13;4.95;;;22.40;82.70;;;;;;4901936;29;20073;-72
2022/08/24 07:35:00;;;;;;;9.65;5.03;;;22.40;82.00;;;;;;4887963;29;20058;-73
2022/08/24 07:37:26;;;;;;;9.13;4.60;;;22.60;81.90;;;;;;4902859;29;20033;-78
2022/08/24 07:39:56;;;;;;;9.82;4.93;;;22.70;81.20;;;;;;4886695;29;20021;-74
2022/08/24 07:42:23;;;;;;;9.60;4.38;;;22.80;80.50;;;;;;4886838;29;20053;-76
2022/08/24 07:44:50;;;;;;;8.07;4.40;;;22.90;80.20;;;;;;4887527;29;20024;-76
2022/08/24 07:47:18;;;;;;;8.82;4.65;;;23.10;79.90;;;;;;4902720;29;20084;-74
2022/08/24 07:49:50;;;;;;;7.75;4.25;;;23.20;79.10;;;;;;4886697;29;20041;-75
2022/08/24 07:52:16;;;;;;;11.90;4.28;;;23.40;79.00;;;;;;4886927;29;20104;-76
2022/08/24 07:54:43;;;;;;;9.13;3.75;;;23.50;77.60;;;;;;4886094;29;20073;-74
2022/08/24 07:57:12;;;;;;;7.07;3.55;;;23.70;76.80;;;;;;4887332;29;20033;-75
2022/08/24 07:59:46;;;;;;;8.38;3.28;;;23.70;75.50;;;;;;4902589;29;20025;-75
2022/08/24 08:02:13;;;;;;;5.65;2.90;;;23.90;74.90;;;;;;4902043;29;20065;-77
2022/08/24 08:04:44;;;;;;;6.25;2.65;;;23.90;71.50;;;;;;4886494;29;20032;-73
2022/08/24 08:07:13;;;;;;;4.15;2.50;;;23.90;71.60;;;;;;4908964;29;20025;-74
2022/08/24 08:09:53;;;;;;;5.20;3.00;;;23.80;71.70;;;;;;4892611;29;20060;-75
2022/08/24 08:12:22;;;;;;;4.70;2.70;;;23.90;72.20;;;;;;4896304;29;20033;-74
2022/08/24 08:14:56;;;;;;;6.95;2.88;;;24.10;72.40;;;;;;4897938;29;20025;-73
2022/08/24 08:17:26;;;;;;;;;;;24.20;71.80;;;;;;4893436;29;20055;-74
2022/08/24 08:20:04;;;;;;;4.32;2.70;;;24.40;71.60;;;;;;4892146;29;19934;-75
2022/08/24 08:25:37;;;;;;;7.63;2.70;;;24.60;70.40;;;;;;4890308;29;20185;-74
2022/08/24 08:28:05;;;;;;;7.63;2.78;;;24.80;69.70;;;;;;4908762;29;20031;-76
2022/08/24 08:30:32;;;;;;;6.47;2.55;;;25.00;69.20;;;;;;4903989;29;20025;-76
2022/08/24 08:33:02;;;;;;;6.70;2.83;;;25.00;69.40;;;;;;4890519;29;20322;-74
2022/08/24 08:35:41;;;;;;;5.57;2.55;;;25.20;69.50;;;;;;4889893;29;20161;-75
2022/08/24 08:38:11;;;;;;;4.45;2.38;;;25.00;68.80;;;;;;4876387;29;20070;-75
2022/08/24 08:40:39;;;;;;;5.72;2.85;;;24.90;68.80;;;;;;4885482;29;20119;-75
2022/08/24 08:43:12;;;;;;;18.70;3.38;;;24.90;69.30;;;;;;4883531;29;20029;-75
2022/08/24 08:46:26;;;;;;;17.48;3.15;;;25.10;69.40;;;;;;4883115;29;20036;-73
2022/08/24 08:49:31;;;;;;;4.70;2.05;;;25.30;68.60;;;;;;4890843;29;20046;-73
2022/08/24 08:51:57;;;;;;;3.83;2.55;;;25.40;68.10;;;;;;4886172;29;20033;-76
2022/08/24 08:54:39;;;;;;;6.75;2.22;;;25.40;67.20;;;;;;4886076;29;20100;-76
2022/08/24 08:57:19;;;;;;;8.50;2.38;;;25.60;67.50;;;;;;4886585;29;20104;-74
2022/08/24 09:00:06;;;;;;;4.32;2.28;;;25.90;67.50;;;;;;4884773;29;20025;-74
2022/08/24 09:03:03;;;;;;;4.53;2.05;;;26.00;66.10;;;;;;4901308;29;20104;-76
2022/08/24 09:05:56;;;;;;;7.35;2.30;;;26.10;65.80;;;;;;4885726;29;20073;-76
2022/08/24 09:08:25;;;;;;;3.13;1.80;;;26.10;65.10;;;;;;4886287;29;20032;-77
2022/08/24 09:11:01;;;;;;;5.22;1.85;;;26.00;63.90;;;;;;4886046;29;20028;-75
2022/08/24 09:13:43;;;;;;;8.10;2.05;;;26.20;64.40;;;;;;4886317;29;20021;-75
2022/08/24 09:16:47;;;;;;;10.98;1.85;;;26.40;64.40;;;;;;4886183;29;20029;-74
2022/08/24 09:19:28;;;;;;;3.60;1.77;;;26.50;63.20;;;;;;4882988;29;20390;-75
2022/08/24 09:22:12;;;;;;;3.50;1.92;;;26.40;61.60;;;;;;4874602;29;20441;-75
2022/08/24 09:24:53;;;;;;;3.92;1.77;;;26.40;63.00;;;;;;4885655;29;20060;-75
2022/08/24 09:27:59;;;;;;;5.80;2.20;;;26.50;63.20;;;;;;4867485;29;20269;-74
2022/08/24 09:30:38;;;;;;;4.07;1.17;;;26.70;62.80;;;;;;4889292;29;20025;-76
2022/08/24 09:33:34;;;;;;;2.67;1.13;;;27.00;61.00;;;;;;4882531;29;20073;-75
2022/08/24 09:36:11;;;;;;;4.47;1.85;;;27.10;60.70;;;;;;4868342;29;20029;-73
2022/08/24 09:38:57;;;;;;;4.50;1.67;;;27.20;60.10;;;;;;4867507;29;20102;-74
2022/08/24 09:42:01;;;;;;;3.55;1.20;;;27.40;59.90;;;;;;4882380;29;20219;-75
2022/08/24 09:44:29;;;;;;;2.90;1.20;;;27.30;59.90;;;;;;4868246;29;20049;-76
2022/08/24 09:47:23;;;;;;;2.75;1.27;;;27.50;60.00;;;;;;4886502;29;20057;-73
2022/08/24 09:50:28;;;;;;;4.15;1.35;;;27.50;59.20;;;;;;4889148;29;20169;-74
2022/08/24 09:53:34;;;;;;;4.50;1.17;;;27.60;58.60;;;;;;4890981;29;20036;-75
2022/08/24 09:56:18;;;;;;;2.17;1.08;;;27.70;59.20;;;;;;4886596;29;20041;-73
2022/08/24 09:59:13;;;;;;;2.70;1.10;;;27.80;58.60;;;;;;4872125;29;20092;-73
2022/08/24 10:02:28;;;;;;;4.75;1.10;;;27.90;59.10;;;;;;4873456;29;20277;-75
2022/08/24 10:05:25;;;;;;;2.92;1.08;;;28.10;58.10;;;;;;4872456;29;20132;-74
2022/08/24 10:08:19;;;;;;;2.13;1.20;;;28.20;57.80;;;;;;4873983;29;20037;-73
2022/08/24 10:10:56;;;;;;;3.15;1.30;;;28.10;57.80;;;;;;4871678;29;20037;-75
2022/08/24 10:13:56;;;;;;;2.88;1.20;;;28.10;58.00;;;;;;4891058;29;20036;-74
2022/08/24 10:16:59;;;;;;;2.70;0.93;;;28.10;57.60;;;;;;4892084;29;20037;-74
2022/08/24 10:19:39;;;;;;;2.97;1.10;;;28.20;57.30;;;;;;4889844;29;20059;-74
2022/08/24 10:22:24;;;;;;;2.55;1.23;;;28.40;57.70;;;;;;4891045;29;20073;-73
2022/08/24 10:25:36;;;;;;;2.53;1.25;;;28.60;57.60;;;;;;4890024;29;20043;-73
2022/08/24 10:28:33;;;;;;;2.33;1.15;;;28.80;57.60;;;;;;4890257;29;20052;-74
2022/08/24 10:31:37;;;;;;;2.58;1.10;;;28.90;57.70;;;;;;4891487;29;20218;-73
2022/08/24 10:34:18;;;;;;;3.47;1.15;;;29.00;57.10;;;;;;4887195;29;20081;-74
2022/08/24 10:37:03;;;;;;;3.47;1.33;;;29.20;57.00;;;;;;4873451;29;20319;-73
2022/08/24 10:39:45;;;;;;;4.63;1.20;;;29.20;56.50;;;;;;4873638;29;20103;-74
2022/08/24 10:45:32;;;;;;;2.53;1.20;;;29.30;56.80;;;;;;4889291;29;20047;-74
2022/08/24 10:48:29;;;;;;;3.10;1.13;;;29.40;57.00;;;;;;4887401;29;20222;-74
2022/08/24 10:51:25;;;;;;;2.38;1.17;;;29.50;57.20;;;;;;4889578;29;20041;-75
2022/08/24 10:53:53;;;;;;;3.42;1.45;;;29.50;56.80;;;;;;4888337;29;20096;-74
2022/08/24 10:56:48;;;;;;;2.50;1.48;;;29.60;56.40;;;;;;4889312;29;20025;-75
2022/08/24 10:59:32;;;;;;;8.80;1.30;;;29.70;56.60;;;;;;4885985;29;20049;-75
2022/08/24 11:02:25;;;;;;;6.10;1.38;;;29.90;56.40;;;;;;4870165;29;20053;-74
2022/08/24 11:04:56;;;;;;;3.38;1.20;;;30.10;55.90;;;;;;4869053;29;20040;-74
2022/08/24 11:07:22;;;;;;;8.95;1.73;;;30.20;55.60;;;;;;4870350;29;20096;-74
2022/08/24 11:09:54;;;;;;;3.10;1.17;;;30.30;55.70;;;;;;4870057;29;20240;-74
2022/08/24 11:12:25;;;;;;;11.52;1.40;;;30.40;55.30;;;;;;4885866;29;20056;-72
2022/08/24 11:14:52;;;;;;;3.05;1.08;;;30.50;55.20;;;;;;4887307;29;20167;-72
2022/08/24 11:17:23;;;;;;;1.88;1.20;;;30.80;54.70;;;;;;4888954;29;20180;-72
2022/08/24 11:19:50;;;;;;;3.00;0.88;;;31.10;54.10;;;;;;4888933;29;20040;-73
2022/08/24 11:22:35;;;;;;;4.25;1.10;;;31.50;54.20;;;;;;4884207;29;20238;-73
2022/08/24 11:25:09;;;;;;;1.92;0.80;;;31.90;53.50;;;;;;4870054;29;20041;-73
2022/08/24 11:27:47;;;;;;;3.88;0.90;;;32.40;52.70;;;;;;4869493;29;20089;-73
2022/08/24 11:30:24;;;;;;;1.95;0.88;;;33.00;52.20;;;;;;4869695;29;20037;-73
2022/08/24 11:33:07;;;;;;;4.60;0.90;;;33.90;50.50;;;;;;4901408;29;20045;-72
2022/08/24 11:35:38;;;;;;;3.83;0.90;;;34.90;49.70;;;;;;4887201;29;20049;-73
2022/08/24 11:38:33;;;;;;;2.53;0.80;;;35.90;48.60;;;;;;4888518;29;20342;-74
2022/08/24 11:41:24;;;;;;;2.20;0.90;;;36.70;46.90;;;;;;4887270;29;20053;-73
2022/08/24 11:44:00;;;;;;;2.63;0.80;;;37.30;45.90;;;;;;4887868;29;20084;-73
2022/08/24 11:46:52;;;;;;;2.40;1.00;;;37.60;46.00;;;;;;4888344;29;20338;-75
2022/08/24 11:49:42;;;;;;;2.75;0.85;;;37.90;45.40;;;;;;4887983;29;20108;-75
2022/08/24 11:52:38;;;;;;;2.90;0.80;;;38.50;45.00;;;;;;4888027;29;20200;-75
2022/08/24 11:55:18;;;;;;;2.07;0.70;;;38.60;45.00;;;;;;4883898;29;20045;-74
2022/08/24 11:57:53;;;;;;;2.05;0.85;;;38.60;44.30;;;;;;4887155;29;20485;-75
2022/08/24 12:00:31;;;;;;;1.65;0.70;;;38.60;44.40;;;;;;4888245;29;20040;-74
2022/08/24 12:03:34;;;;;;;2.25;0.52;;;38.80;44.40;;;;;;4887337;29;20326;-73
2022/08/24 12:06:32;;;;;;;3.22;0.70;;;39.50;43.20;;;;;;4887702;29;20040;-74
2022/08/24 12:09:22;;;;;;;2.97;1.00;;;40.20;42.90;;;;;;4888199;29;20048;-74
2022/08/24 12:11:54;;;;;;;2.15;0.93;;;41.40;42.60;;;;;;4885727;29;20271;-76
2022/08/24 12:14:48;;;;;;;1.83;0.70;;;41.50;42.40;;;;;;4887853;29;20060;-73
2022/08/24 12:17:41;;;;;;;1.88;0.52;;;41.50;42.10;;;;;;4886165;29;20037;-79
2022/08/24 12:20:32;;;;;;;2.35;0.70;;;42.10;41.80;;;;;;4896456;29;20027;-75
2022/08/24 12:23:07;;;;;;;3.75;0.80;;;41.80;41.80;;;;;;4885639;29;20037;-73
2022/08/24 12:28:31;;;;;;;1.40;0.80;;;40.50;41.80;;;;;;4886306;29;20029;-76
2022/08/24 12:31:14;;;;;;;3.00;0.70;;;41.20;41.80;;;;;;4871083;29;20318;-74
2022/08/24 12:33:46;;;;;;;2.38;0.80;;;41.40;41.60;;;;;;4886834;29;20214;-75
2022/08/24 12:36:24;;;;;;;2.30;1.20;;;41.50;41.40;;;;;;4886498;29;20056;-73
2022/08/24 12:39:02;;;;;;;3.80;0.80;;;41.20;42.00;;;;;;4871833;29;20316;-72
2022/08/24 12:41:38;;;;;;;3.33;1.25;;;41.40;41.10;;;;;;4901302;29;20121;-73
2022/08/24 12:44:11;;;;;;;3.75;0.85;;;41.40;41.10;;;;;;4886677;29;20040;-73
2022/08/24 12:46:38;;;;;;;2.22;0.88;;;41.00;41.20;;;;;;4886620;29;20029;-74
2022/08/24 12:49:16;;;;;;;1.73;0.97;;;40.60;41.10;;;;;;4886745;29;20033;-75
2022/08/24 12:52:01;;;;;;;3.25;0.90;;;40.90;41.40;;;;;;4886741;29;20041;-73
2022/08/24 12:55:21;;;;;;;1.30;0.70;;;41.20;41.40;;;;;;4885735;29;20072;-77
2022/08/24 12:58:09;;;;;;;2.53;0.70;;;41.20;40.60;;;;;;4829548;29;20066;-74
2022/08/24 13:00:45;;;;;;;3.70;0.80;;;40.90;41.00;;;;;;4886326;29;20269;-74
2022/08/24 13:03:30;;;;;;;2.78;0.70;;;41.10;41.20;;;;;;4886802;29;20054;-75
2022/08/24 13:05:59;;;;;;;3.40;0.85;;;41.30;40.90;;;;;;4886396;29;20047;-72
2022/08/24 13:08:42;;;;;;;2.88;0.75;;;42.20;40.60;;;;;;4885853;29;20059;-73
2022/08/24 13:11:31;;;;;;;1.85;1.02;;;43.20;40.00;;;;;;4884642;29;20295;-74
2022/08/24 13:13:56;;;;;;;0.90;0.60;;;44.20;38.90;;;;;;4885922;29;20371;-73
2022/08/24 13:16:46;;;;;;;1.48;0.60;;;44.50;38.20;;;;;;4886205;29;20033;-73
2022/08/24 13:19:42;;;;;;;1.83;0.50;;;45.50;38.50;;;;;;4886423;29;20049;-75
2022/08/24 13:22:08;;;;;;;1.63;0.57;;;46.20;37.80;;;;;;4887424;29;20319;-73
2022/08/24 13:24:34;;;;;;;1.92;0.73;;;45.70;37.70;;;;;;4890112;29;20056;-74
2022/08/24 13:27:12;;;;;;;2.95;0.70;;;46.30;37.90;;;;;;4889634;29;20104;-73
2022/08/24 13:29:48;;;;;;;1.77;0.63;;;46.10;37.10;;;;;;4889886;29;20028;-75
2022/08/24 13:32:35;;;;;;;3.33;0.73;;;46.00;37.70;;;;;;4890409;29;20041;-74
2022/08/24 13:35:30;;;;;;;1.35;0.60;;;46.70;37.60;;;;;;4890377;29;20216;-74
2022/08/24 13:38:40;;;;;;;1.42;0.70;;;47.10;37.20;;;;;;4903807;29;20300;-76
2022/08/24 13:41:40;;;;;;;1.70;0.80;;;47.50;37.10;;;;;;4890821;29;20041;-74
2022/08/24 13:44:34;;;;;;;3.08;0.88;;;47.20;37.10;;;;;;4896661;29;20238;-73
2022/08/24 13:47:17;;;;;;;2.60;0.70;;;47.70;37.10;;;;;;4883175;29;20096;-75
2022/08/24 13:49:51;;;;;;;1.33;0.60;;;47.90;37.80;;;;;;4889893;29;20279;-75
2022/08/24 13:52:44;;;;;;;1.50;0.68;;;48.70;36.90;;;;;;4890876;29;20219;-76
2022/08/24 13:55:25;;;;;;;1.80;0.70;;;48.60;36.60;;;;;;4891187;29;20047;-74
2022/08/24 13:58:09;;;;;;;2.42;0.63;;;48.80;36.90;;;;;;4890453;29;20100;-76
2022/08/24 14:00:42;;;;;;;1.33;0.70;;;49.10;36.80;;;;;;4890874;29;20029;-76
2022/08/24 14:03:18;;;;;;;2.05;0.70;;;49.40;36.70;;;;;;4891098;29;20048;-75
2022/08/24 14:05:49;;;;;;;2.97;0.93;;;49.70;36.80;;;;;;4890549;29;20256;-74
2022/08/24 14:08:47;;;;;;;1.80;0.75;;;49.90;36.60;;;;;;4890733;29;20036;-75
2022/08/24 14:11:46;;;;;;;2.55;0.70;;;49.20;36.70;;;;;;4891080;29;20327;-74
2022/08/24 14:14:33;;;;;;;1.40;0.70;;;49.90;36.60;;;;;;4890487;29;20108;-74
2022/08/24 14:17:51;;;;;;;1.67;0.80;;;49.40;36.30;;;;;;4890268;29;20041;-75
2022/08/24 14:20:49;;;;;;;2.55;0.77;;;49.90;36.50;;;;;;4870406;29;20354;-75
2022/08/24 14:23:34;;;;;;;1.60;0.68;;;49.70;36.40;;;;;;4890658;29;20064;-76
2022/08/24 14:26:35;;;;;;;2.90;0.75;;;49.40;36.90;;;;;;4890123;29;20100;-75
2022/08/24 14:29:26;;;;;;;2.53;0.85;;;48.90;37.10;;;;;;4890506;29;20194;-74
2022/08/24 14:31:53;;;;;;;0.85;0.63;;;49.30;37.50;;;;;;4889415;29;20037;-74
2022/08/24 14:34:47;;;;;;;1.45;0.65;;;50.10;37.10;;;;;;4904537;29;20132;-74
2022/08/24 14:37:13;;;;;;;2.05;0.80;;;50.20;37.20;;;;;;4890345;29;20096;-74
2022/08/24 14:40:06;;;;;;;2.20;0.87;;;49.90;36.80;;;;;;4890270;29;20327;-76
2022/08/24 14:42:37;;;;;;;2.38;1.10;;;48.30;37.30;;;;;;4890504;29;20315;-74
2022/08/24 14:45:33;;;;;;;1.75;0.70;;;46.20;38.40;;;;;;4890323;29;20037;-74
2022/08/24 14:48:21;;;;;;;1.93;0.83;;;46.10;38.90;;;;;;4890056;29;20069;-74
2022/08/24 14:51:25;;;;;;;1.98;0.75;;;46.40;38.80;;;;;;4890012;29;20037;-74
2022/08/24 14:54:06;;;;;;;1.25;0.73;;;46.40;38.90;;;;;;4889770;29;20049;-75
2022/08/24 14:57:14;;;;;;;1.77;0.80;;;47.30;38.70;;;;;;4904478;29;20395;-73
2022/08/24 14:59:54;;;;;;;1.20;0.70;;;47.70;38.30;;;;;;4889848;29;20179;-75
2022/08/24 15:02:22;;;;;;;2.22;0.90;;;47.80;38.10;;;;;;4889765;29;20139;-75
2022/08/24 15:04:59;;;;;;;2.90;0.90;;;48.00;38.00;;;;;;4889637;29;20029;-75
2022/08/24 15:07:35;;;;;;;1.30;0.68;;;48.00;38.30;;;;;;4890113;29;20049;-74
2022/08/24 15:10:13;;;;;;;1.95;0.80;;;48.10;38.20;;;;;;4889595;29;20033;-73
2022/08/24 15:12:54;;;;;;;2.22;0.90;;;48.90;37.80;;;;;;4888112;29;20109;-74
2022/08/24 15:15:46;;;;;;;1.45;0.70;;;48.90;37.40;;;;;;4887310;29;20040;-73
2022/08/24 15:18:36;;;;;;;3.78;0.90;;;47.10;38.40;;;;;;4889999;29;20089;-74
2022/08/24 15:21:23;;;;;;;1.90;0.75;;;46.90;38.60;;;;;;4870806;29;20307;-74
2022/08/24 15:24:10;;;;;;;2.10;0.60;;;47.60;38.60;;;;;;4869673;29;20075;-74
2022/08/24 15:26:48;;;;;;;1.20;0.70;;;47.20;38.70;;;;;;4871136;29;20119;-74
2022/08/24 15:29:24;;;;;;;2.45;0.90;;;46.60;39.10;;;;;;4869992;29;20038;-74
2022/08/24 15:31:58;;;;;;;2.30;0.70;;;47.00;39.00;;;;;;4879248;29;20347;-74
2022/08/24 15:34:51;;;;;;;3.58;0.80;;;46.60;39.30;;;;;;4890120;29;20037;-74
2022/08/24 15:37:35;;;;;;;1.45;0.85;;;46.10;39.30;;;;;;4889551;29;20043;-75
2022/08/24 15:40:14;;;;;;;1.77;0.93;;;46.60;39.40;;;;;;4889177;29;20138;-75
2022/08/24 15:42:41;;;;;;;1.58;0.80;;;46.60;39.30;;;;;;4889409;29;20092;-73
2022/08/24 15:45:08;;;;;;;1.40;0.75;;;46.50;39.50;;;;;;4889270;29;20041;-74
2022/08/24 15:47:38;;;;;;;2.35;0.93;;;46.90;39.30;;;;;;4888987;29;20219;-74
2022/08/24 15:50:18;;;;;;;1.33;0.77;;;47.40;39.20;;;;;;4888702;29;20045;-74
2022/08/24 15:53:25;;;;;;;1.75;0.80;;;47.10;39.10;;;;;;4889134;29;20029;-73
2022/08/24 15:55:51;;;;;;;3.42;1.00;;;46.90;39.50;;;;;;4888657;29;20044;-73
2022/08/24 15:58:35;;;;;;;1.77;0.85;;;46.20;39.80;;;;;;4888519;29;20029;-73
2022/08/24 16:04:45;;;;;;;1.55;0.70;;;45.60;40.30;;;;;;4888362;29;20037;-74
2022/08/24 16:07:23;;;;;;;1.63;0.70;;;46.90;40.00;;;;;;4889110;29;20056;-74
2022/08/24 16:10:19;;;;;;;2.60;0.73;;;47.80;39.20;;;;;;4870110;29;20037;-75
2022/08/24 16:12:45;;;;;;;2.10;0.60;;;47.10;39.20;;;;;;4869604;29;20060;-73
2022/08/24 16:15:18;;;;;;;2.13;0.70;;;47.50;39.50;;;;;;4885246;29;20033;-76
2022/08/24 16:17:55;;;;;;;1.40;0.70;;;47.60;39.20;;;;;;4887451;29;20040;-76
2022/08/24 16:20:23;;;;;;;1.70;0.93;;;47.10;39.10;;;;;;4888613;29;20049;-75
2022/08/24 16:22:55;;;;;;;2.45;0.90;;;45.80;39.90;;;;;;4887958;29;20036;-76
2022/08/24 16:25:31;;;;;;;1.63;0.80;;;44.20;40.90;;;;;;4903202;29;20036;-75
2022/08/24 16:28:31;;;;;;;1.40;0.80;;;43.20;41.70;;;;;;4888289;29;20052;-75
2022/08/24 16:30:59;;;;;;;3.20;1.00;;;42.80;42.40;;;;;;4887294;29;20342;-75
2022/08/24 16:33:33;;;;;;;7.47;1.80;;;42.80;42.70;;;;;;4888492;29;20064;-77
2022/08/24 16:36:11;;;;;;;1.90;0.70;;;42.70;42.70;;;;;;4888308;29;20112;-75
2022/08/24 16:38:40;;;;;;;3.70;1.40;;;42.80;42.20;;;;;;4888551;29;20282;-73
2022/08/24 16:41:08;;;;;;;4.32;1.10;;;42.60;43.10;;;;;;4888453;29;20290;-73
2022/08/24 16:43:37;;;;;;;2.40;0.90;;;42.40;42.70;;;;;;4887535;29;20040;-75
2022/08/24 16:46:05;;;;;;;2.60;0.88;;;41.80;42.60;;;;;;4887871;29;20232;-75
2022/08/24 16:48:31;;;;;;;1.95;0.77;;;40.80;43.70;;;;;;4888612;29;20036;-75
2022/08/24 16:50:57;;;;;;;1.58;0.90;;;40.40;43.90;;;;;;4888336;29;20060;-72
2022/08/24 16:53:23;;;;;;;1.40;0.70;;;40.00;44.20;;;;;;4888395;29;20044;-72
2022/08/24 16:55:50;;;;;;;3.05;0.80;;;39.60;44.90;;;;;;4888064;29;20096;-75
2022/08/24 16:58:16;;;;;;;1.50;0.80;;;39.30;45.20;;;;;;4887773;29;20039;-71
2022/08/24 17:00:44;;;;;;;2.63;1.00;;;38.90;45.60;;;;;;4887740;29;20829;-75
2022/08/24 17:03:11;;;;;;;2.90;0.90;;;38.30;46.40;;;;;;4887581;29;20409;-74
2022/08/24 17:05:37;;;;;;;1.70;0.80;;;38.40;46.40;;;;;;4888229;29;20407;-77
2022/08/24 17:08:04;;;;;;;2.13;1.10;;;38.60;46.40;;;;;;4886403;29;20029;-76
2022/08/24 17:10:30;;;;;;;1.92;1.27;;;38.20;46.40;;;;;;4888276;29;20044;-75
2022/08/24 17:12:56;;;;;;;2.97;1.00;;;37.10;47.30;;;;;;4886605;29;20048;-73
2022/08/24 17:15:22;;;;;;;2.38;1.00;;;36.20;48.40;;;;;;4885068;29;20033;-77
2022/08/24 17:18:01;;;;;;;2.45;1.08;;;35.30;49.50;;;;;;4886921;29;20048;-75
2022/08/24 17:20:28;;;;;;;3.33;1.00;;;34.10;50.80;;;;;;4887618;29;20048;-72
2022/08/24 17:22:54;;;;;;;3.55;1.02;;;33.40;51.90;;;;;;4887312;29;20049;-72
2022/08/24 17:25:21;;;;;;;5.03;1.15;;;32.80;52.80;;;;;;4886838;29;20060;-70
2022/08/24 17:27:48;;;;;;;2.60;0.90;;;32.50;53.50;;;;;;4887594;29;20351;-70
2022/08/24 17:30:15;;;;;;;3.28;1.10;;;32.30;53.80;;;;;;4887578;29;20036;-70
2022/08/24 17:32:42;;;;;;;2.17;1.02;;;32.20;54.00;;;;;;4887637;29;20033;-70
2022/08/24 17:35:08;;;;;;;2.95;1.40;;;31.90;54.40;;;;;;4887407;29;20049;-70
2022/08/24 17:37:35;;;;;;;3.47;1.63;;;31.80;54.80;;;;;;4888121;29;20057;-71
2022/08/24 17:40:03;;;;;;;2.72;1.20;;;31.70;55.00;;;;;;4887303;29;20089;-71
2022/08/24 17:42:29;;;;;;;3.13;1.15;;;31.60;55.80;;;;;;4887351;29;20033;-70
2022/08/24 17:44:55;;;;;;;3.08;1.75;;;31.30;55.60;;;;;;4887433;29;20059;-71
2022/08/24 17:47:21;;;;;;;3.45;1.50;;;31.10;56.10;;;;;;4887735;29;20084;-71
2022/08/24 17:49:46;;;;;;;3.38;1.88;;;30.90;56.40;;;;;;4887790;29;20074;-70
2022/08/24 17:52:13;;;;;;;4.35;1.52;;;30.60;56.90;;;;;;4887038;29;20132;-70
2022/08/24 17:54:39;;;;;;;3.28;1.35;;;30.40;57.30;;;;;;4887884;29;20029;-70
2022/08/24 17:57:05;;;;;;;2.28;1.50;;;30.30;57.60;;;;;;4887269;29;20045;-70
2022/08/24 17:59:33;;;;;;;3.33;1.70;;;30.20;57.80;;;;;;4887407;29;20052;-70
2022/08/24 18:02:06;;;;;;;2.55;1.50;;;30.10;58.00;;;;;;4886821;29;20064;-71
2022/08/24 18:04:34;;;;;;;3.95;1.40;;;30.00;58.40;;;;;;4887552;29;20109;-70
2022/08/24 18:07:03;;;;;;;4.28;1.75;;;29.80;58.60;;;;;;4887427;29;20093;-70
2022/08/24 18:10:06;;;;;;;3.55;1.30;;;29.70;58.90;;;;;;4888823;29;20044;-70
2022/08/24 18:12:32;;;;;;;3.53;1.40;;;29.50;59.30;;;;;;4890065;29;20100;-69
2022/08/24 18:15:00;;;;;;;4.10;1.58;;;29.30;59.80;;;;;;4890647;29;20024;-69
2022/08/24 18:17:31;;;;;;;;;;;29.20;60.20;;;;;;4891243;29;20174;-70
2022/08/24 18:19:57;;;;;;;4.05;1.70;;;29.00;60.40;;;;;;4890230;29;19908;-71
2022/08/24 18:22:23;;;;;;;4.75;1.90;;;28.90;61.00;;;;;;4890975;29;20041;-70
2022/08/24 18:24:48;;;;;;;3.38;2.00;;;28.80;61.20;;;;;;4890970;29;20082;-70
2022/08/24 18:27:22;;;;;;;5.50;1.90;;;28.60;61.80;;;;;;4890088;29;20045;-69
2022/08/24 18:29:48;;;;;;;3.60;1.73;;;28.50;62.30;;;;;;4890549;29;20036;-69
2022/08/24 18:32:14;;;;;;;4.18;2.00;;;28.30;62.50;;;;;;4890293;29;20037;-71
2022/08/24 18:34:40;;;;;;;4.55;1.85;;;28.20;62.80;;;;;;4890874;29;20036;-70
2022/08/24 18:37:07;;;;;;;4.45;2.03;;;28.10;63.20;;;;;;4890375;29;20200;-70
2022/08/24 18:39:32;;;;;;;3.92;1.80;;;28.00;63.40;;;;;;4890069;29;20111;-70
2022/08/24 18:41:59;;;;;;;4.78;1.98;;;27.90;64.00;;;;;;4889779;29;20096;-70
2022/08/24 18:44:25;;;;;;;2.95;1.75;;;27.70;64.10;;;;;;4890588;29;20089;-70
2022/08/24 18:46:51;;;;;;;3.53;1.70;;;27.70;64.40;;;;;;4890182;29;20049;-70
2022/08/24 18:49:19;;;;;;;3.75;2.00;;;27.60;64.70;;;;;;4889702;29;20059;-70
2022/08/24 18:51:47;;;;;;;5.10;1.85;;;27.50;64.80;;;;;;4890136;29;20029;-71